Main page
METAR-TAF:

METAR-TAF

Airports :

Bournemouth Airport

Bournemouth, England

latitude: 50-47N, longitude: 001-50W, elevation: 11 m

Current weather observation

The report was made 30 minutes ago, at 20:50 UTC
Wind 7 kt from the South/Southwest
Temperature 12°C
Humidity 82%
Pressure 1024 hPa
Visibility 10 km or more
no clouds below 1500 m and no cumulonimbus

METAR: EGHH 132050Z 21007KT CAVOK 12/09 Q1024

Time: 21:20 (21:20 UTC)

Forecast

The report was made 1 hour and 18 minutes ago, at 20:02 UTC
Forecast valid from 13 at 21 UTC to 14 at 06 UTC
Wind 9 kt from the South/Southwest
Visibility 10 km or more
Few clouds at a height of 3000 ft
Probability 30% :
Temporary
from 13 at 21 UTC to 14 at 06 UTC
Wind 15 kt from the South with gusts up to 25 kt

TAF: EGHH 132002Z 1321/1406 20009KT 9999 FEW030 PROB30 TEMPO 1321/1406 18015G25KT

Weather observations and forecasts of more than 4000 airports (METAR and TAF reports).

The available stations are represented by yellow and red dots on the map.

Hover mouse over dot to see the name of the station.

Then click to see weather observations and forecasts.

To change the map : click on the green buttons with a black cross to zoom in, on the green button with a dash to zoom out, or on the green arrows for adjacent maps.


METAR-TAF: